sensor_id;sensor_type;location;lat;lon;timestamp;pressure;altitude;pressure_sealevel;temperature;humidity
70250;BME280;57644;48.416;-123.374;2022-11-20T00:00:46;102460.81;;;-0.35;66.73
70250;BME280;57644;48.416;-123.374;2022-11-20T00:03:16;102462.55;;;-0.41;67.03
70250;BME280;57644;48.416;-123.374;2022-11-20T00:05:46;102461.70;;;-0.31;66.80
70250;BME280;57644;48.416;-123.374;2022-11-20T00:08:17;102462.62;;;-0.49;67.74
70250;BME280;57644;48.416;-123.374;2022-11-20T00:10:47;102464.01;;;-0.45;67.66
70250;BME280;57644;48.416;-123.374;2022-11-20T00:13:17;102462.18;;;-0.40;67.61
70250;BME280;57644;48.416;-123.374;2022-11-20T00:15:48;102460.55;;;-0.33;67.57
70250;BME280;57644;48.416;-123.374;2022-11-20T00:18:18;102458.86;;;-0.33;67.91
70250;BME280;57644;48.416;-123.374;2022-11-20T00:20:49;102462.34;;;-0.38;68.35
70250;BME280;57644;48.416;-123.374;2022-11-20T00:23:20;102464.24;;;-0.51;69.10
70250;BME280;57644;48.416;-123.374;2022-11-20T00:25:51;102465.56;;;-0.64;70.34
70250;BME280;57644;48.416;-123.374;2022-11-20T00:28:22;102464.98;;;-0.70;70.69
70250;BME280;57644;48.416;-123.374;2022-11-20T00:30:51;102466.18;;;-0.63;70.37
70250;BME280;57644;48.416;-123.374;2022-11-20T00:35:52;102471.14;;;-0.74;71.70
70250;BME280;57644;48.416;-123.374;2022-11-20T00:38:22;102466.68;;;-0.70;71.60
70250;BME280;57644;48.416;-123.374;2022-11-20T00:40:56;102468.42;;;-0.75;71.88
70250;BME280;57644;48.416;-123.374;2022-11-20T00:43:24;102467.13;;;-0.68;71.14
70250;BME280;57644;48.416;-123.374;2022-11-20T00:45:58;102467.37;;;-0.69;71.86
70250;BME280;57644;48.416;-123.374;2022-11-20T00:48:24;102468.64;;;-0.76;71.95
70250;BME280;57644;48.416;-123.374;2022-11-20T00:50:55;102468.60;;;-0.78;72.12
70250;BME280;57644;48.416;-123.374;2022-11-20T00:53:26;102466.74;;;-1.05;72.93
70250;BME280;57644;48.416;-123.374;2022-11-20T00:55:59;102462.89;;;-0.94;72.34
70250;BME280;57644;48.416;-123.374;2022-11-20T00:58:31;102462.94;;;-0.93;72.75
70250;BME280;57644;48.416;-123.374;2022-11-20T01:01:01;102463.86;;;-1.06;73.12
70250;BME280;57644;48.416;-123.374;2022-11-20T01:03:30;102462.78;;;-1.02;73.05
70250;BME280;57644;48.416;-123.374;2022-11-20T01:06:01;102459.71;;;-0.98;73.23
70250;BME280;57644;48.416;-123.374;2022-11-20T01:08:31;102454.10;;;-1.00;73.16
70250;BME280;57644;48.416;-123.374;2022-11-20T01:11:01;102451.24;;;-0.94;73.58
70250;BME280;57644;48.416;-123.374;2022-11-20T01:13:30;102452.42;;;-0.92;73.51
70250;BME280;57644;48.416;-123.374;2022-11-20T01:16:04;102454.46;;;-1.16;74.66
70250;BME280;57644;48.416;-123.374;2022-11-20T01:18:30;102456.94;;;-1.39;75.51
70250;BME280;57644;48.416;-123.374;2022-11-20T01:21:03;102453.42;;;-1.19;74.12
70250;BME280;57644;48.416;-123.374;2022-11-20T01:23:33;102453.96;;;-1.08;74.01
70250;BME280;57644;48.416;-123.374;2022-11-20T01:26:02;102452.38;;;-1.00;73.63
70250;BME280;57644;48.416;-123.374;2022-11-20T01:28:32;102450.41;;;-1.11;74.44
70250;BME280;57644;48.416;-123.374;2022-11-20T01:31:02;102454.95;;;-1.22;74.50
70250;BME280;57644;48.416;-123.374;2022-11-20T01:33:32;102459.71;;;-1.30;74.94
70250;BME280;57644;48.416;-123.374;2022-11-20T01:36:05;102460.93;;;-1.26;74.41
70250;BME280;57644;48.416;-123.374;2022-11-20T01:38:33;102464.22;;;-1.46;75.50
70250;BME280;57644;48.416;-123.374;2022-11-20T01:41:05;102467.57;;;-1.56;75.94
70250;BME280;57644;48.416;-123.374;2022-11-20T01:43:35;102467.49;;;-1.65;76.57
70250;BME280;57644;48.416;-123.374;2022-11-20T01:48:40;102463.45;;;-1.74;76.56
70250;BME280;57644;48.416;-123.374;2022-11-20T01:51:10;102464.98;;;-1.63;75.82
70250;BME280;57644;48.416;-123.374;2022-11-20T01:53:37;102464.15;;;-1.57;75.56
70250;BME280;57644;48.416;-123.374;2022-11-20T01:56:09;102464.26;;;-1.54;75.55
70250;BME280;57644;48.416;-123.374;2022-11-20T01:58:39;102464.07;;;-1.55;75.46
70250;BME280;57644;48.416;-123.374;2022-11-20T02:01:07;102462.01;;;-1.62;75.92
70250;BME280;57644;48.416;-123.374;2022-11-20T02:03:37;102463.14;;;-1.71;76.11
70250;BME280;57644;48.416;-123.374;2022-11-20T02:06:12;102463.57;;;-1.66;75.92
70250;BME280;57644;48.416;-123.374;2022-11-20T02:08:39;102463.03;;;-1.76;76.26
70250;BME280;57644;48.416;-123.374;2022-11-20T02:11:09;102460.39;;;-1.84;76.43
70250;BME280;57644;48.416;-123.374;2022-11-20T02:16:12;102455.38;;;-1.80;77.10
70250;BME280;57644;48.416;-123.374;2022-11-20T02:18:41;102455.87;;;-1.79;76.86
70250;BME280;57644;48.416;-123.374;2022-11-20T02:21:17;102456.28;;;-1.73;77.05
70250;BME280;57644;48.416;-123.374;2022-11-20T02:26:14;102459.16;;;-1.95;77.72
70250;BME280;57644;48.416;-123.374;2022-11-20T02:28:42;102460.94;;;-1.86;77.14
70250;BME280;57644;48.416;-123.374;2022-11-20T02:31:12;102463.61;;;-1.79;76.72
70250;BME280;57644;48.416;-123.374;2022-11-20T02:33:44;102467.60;;;-1.70;76.65
70250;BME280;57644;48.416;-123.374;2022-11-20T02:36:16;102472.77;;;-1.64;76.48
70250;BME280;57644;48.416;-123.374;2022-11-20T02:38:44;102480.81;;;-1.63;76.28
70250;BME280;57644;48.416;-123.374;2022-11-20T02:41:15;102486.12;;;-1.61;76.16
70250;BME280;57644;48.416;-123.374;2022-11-20T02:43:46;102489.60;;;-1.60;76.31
70250;BME280;57644;48.416;-123.374;2022-11-20T02:46:16;102486.52;;;-1.57;76.23
70250;BME280;57644;48.416;-123.374;2022-11-20T02:48:45;102482.89;;;-1.47;75.72
70250;BME280;57644;48.416;-123.374;2022-11-20T02:51:16;102480.69;;;-1.67;76.31
70250;BME280;57644;48.416;-123.374;2022-11-20T02:53:47;102483.34;;;-1.56;75.57
70250;BME280;57644;48.416;-123.374;2022-11-20T02:56:17;102483.97;;;-1.50;75.85
70250;BME280;57644;48.416;-123.374;2022-11-20T02:58:48;102487.04;;;-1.55;75.76
70250;BME280;57644;48.416;-123.374;2022-11-20T03:01:18;102483.53;;;-1.65;75.78
70250;BME280;57644;48.416;-123.374;2022-11-20T03:03:49;102481.17;;;-1.72;75.98
70250;BME280;57644;48.416;-123.374;2022-11-20T03:06:19;102483.55;;;-1.80;76.22
70250;BME280;57644;48.416;-123.374;2022-11-20T03:08:49;102484.77;;;-1.87;76.39
70250;BME280;57644;48.416;-123.374;2022-11-20T03:11:20;102484.15;;;-1.86;76.49
70250;BME280;57644;48.416;-123.374;2022-11-20T03:13:50;102485.12;;;-1.76;76.05
70250;BME280;57644;48.416;-123.374;2022-11-20T03:16:22;102488.87;;;-1.75;76.52
70250;BME280;57644;48.416;-123.374;2022-11-20T03:18:53;102486.33;;;-1.70;76.24
70250;BME280;57644;48.416;-123.374;2022-11-20T03:21:21;102490.51;;;-1.76;76.51
70250;BME280;57644;48.416;-123.374;2022-11-20T03:23:53;102492.52;;;-1.88;76.99
70250;BME280;57644;48.416;-123.374;2022-11-20T03:26:24;102495.19;;;-1.87;76.96
70250;BME280;57644;48.416;-123.374;2022-11-20T03:28:55;102494.09;;;-2.01;77.22
70250;BME280;57644;48.416;-123.374;2022-11-20T03:31:26;102496.88;;;-1.93;76.63
70250;BME280;57644;48.416;-123.374;2022-11-20T03:33:56;102496.29;;;-1.97;76.84
70250;BME280;57644;48.416;-123.374;2022-11-20T03:36:26;102497.03;;;-2.08;77.51
70250;BME280;57644;48.416;-123.374;2022-11-20T03:38:56;102499.30;;;-2.19;77.96
70250;BME280;57644;48.416;-123.374;2022-11-20T03:41:27;102499.22;;;-2.22;78.02
70250;BME280;57644;48.416;-123.374;2022-11-20T03:43:58;102499.48;;;-2.31;78.42
70250;BME280;57644;48.416;-123.374;2022-11-20T03:46:28;102499.13;;;-2.29;78.51
70250;BME280;57644;48.416;-123.374;2022-11-20T03:48:58;102497.53;;;-2.30;78.40
70250;BME280;57644;48.416;-123.374;2022-11-20T03:51:28;102500.02;;;-2.26;78.26
70250;BME280;57644;48.416;-123.374;2022-11-20T03:54:00;102495.61;;;-2.15;77.87
70250;BME280;57644;48.416;-123.374;2022-11-20T03:56:30;102495.83;;;-2.13;77.85
70250;BME280;57644;48.416;-123.374;2022-11-20T03:59:00;102494.08;;;-2.16;78.31
70250;BME280;57644;48.416;-123.374;2022-11-20T04:01:34;102493.29;;;-2.18;78.45
70250;BME280;57644;48.416;-123.374;2022-11-20T04:04:05;102493.18;;;-2.08;77.72
70250;BME280;57644;48.416;-123.374;2022-11-20T04:06:35;102494.65;;;-2.04;77.62
70250;BME280;57644;48.416;-123.374;2022-11-20T04:09:03;102493.58;;;-2.01;77.43
70250;BME280;57644;48.416;-123.374;2022-11-20T04:11:34;102496.07;;;-2.04;77.56
70250;BME280;57644;48.416;-123.374;2022-11-20T04:14:04;102493.14;;;-2.06;77.43
70250;BME280;57644;48.416;-123.374;2022-11-20T04:16:35;102488.25;;;-2.05;77.46
70250;BME280;57644;48.416;-123.374;2022-11-20T04:19:05;102488.43;;;-2.08;77.88
70250;BME280;57644;48.416;-123.374;2022-11-20T04:21:35;102489.44;;;-2.02;77.46
70250;BME280;57644;48.416;-123.374;2022-11-20T04:24:06;102489.00;;;-1.99;77.58
70250;BME280;57644;48.416;-123.374;2022-11-20T04:26:36;102491.69;;;-2.23;78.28
70250;BME280;57644;48.416;-123.374;2022-11-20T04:29:06;102492.89;;;-2.26;78.26
70250;BME280;57644;48.416;-123.374;2022-11-20T04:31:36;102493.68;;;-2.29;78.63
70250;BME280;57644;48.416;-123.374;2022-11-20T04:34:07;102495.29;;;-2.39;78.78
70250;BME280;57644;48.416;-123.374;2022-11-20T04:36:37;102494.42;;;-2.44;78.87
70250;BME280;57644;48.416;-123.374;2022-11-20T04:39:11;102494.86;;;-2.40;78.68
70250;BME280;57644;48.416;-123.374;2022-11-20T04:41:38;102494.87;;;-2.34;78.53
70250;BME280;57644;48.416;-123.374;2022-11-20T04:44:08;102493.75;;;-2.38;78.85
70250;BME280;57644;48.416;-123.374;2022-11-20T04:46:40;102493.71;;;-2.30;79.10
70250;BME280;57644;48.416;-123.374;2022-11-20T04:49:08;102499.58;;;-2.39;79.85
70250;BME280;57644;48.416;-123.374;2022-11-20T04:51:38;102504.17;;;-2.35;79.59
70250;BME280;57644;48.416;-123.374;2022-11-20T04:54:11;102506.44;;;-2.34;79.55
70250;BME280;57644;48.416;-123.374;2022-11-20T04:56:40;102501.94;;;-2.31;79.53
70250;BME280;57644;48.416;-123.374;2022-11-20T04:59:10;102500.21;;;-2.40;79.70
70250;BME280;57644;48.416;-123.374;2022-11-20T05:01:41;102498.98;;;-2.42;80.08
70250;BME280;57644;48.416;-123.374;2022-11-20T05:04:10;102502.07;;;-2.49;80.84
70250;BME280;57644;48.416;-123.374;2022-11-20T05:06:41;102508.09;;;-2.36;79.74
70250;BME280;57644;48.416;-123.374;2022-11-20T05:09:11;102508.89;;;-2.45;79.88
70250;BME280;57644;48.416;-123.374;2022-11-20T05:11:42;102516.63;;;-2.94;82.17
70250;BME280;57644;48.416;-123.374;2022-11-20T05:14:12;102516.35;;;-2.65;80.90
70250;BME280;57644;48.416;-123.374;2022-11-20T05:16:42;102518.24;;;-2.60;80.76
70250;BME280;57644;48.416;-123.374;2022-11-20T05:19:13;102524.76;;;-2.60;80.56
70250;BME280;57644;48.416;-123.374;2022-11-20T05:21:43;102526.33;;;-2.55;80.48
70250;BME280;57644;48.416;-123.374;2022-11-20T05:24:14;102525.88;;;-2.63;80.92
70250;BME280;57644;48.416;-123.374;2022-11-20T05:26:44;102527.95;;;-2.88;81.72
70250;BME280;57644;48.416;-123.374;2022-11-20T05:29:14;102525.28;;;-2.74;81.14
70250;BME280;57644;48.416;-123.374;2022-11-20T05:31:45;102527.58;;;-2.80;81.52
70250;BME280;57644;48.416;-123.374;2022-11-20T05:34:15;102530.52;;;-2.75;80.95
70250;BME280;57644;48.416;-123.374;2022-11-20T05:36:45;102533.05;;;-2.88;81.58
70250;BME280;57644;48.416;-123.374;2022-11-20T05:39:16;102534.07;;;-2.75;80.63
70250;BME280;57644;48.416;-123.374;2022-11-20T05:41:46;102537.48;;;-2.71;80.19
70250;BME280;57644;48.416;-123.374;2022-11-20T05:44:17;102539.37;;;-2.73;80.19
70250;BME280;57644;48.416;-123.374;2022-11-20T05:46:48;102543.17;;;-2.82;80.53
70250;BME280;57644;48.416;-123.374;2022-11-20T05:49:19;102539.49;;;-3.01;81.36
70250;BME280;57644;48.416;-123.374;2022-11-20T05:51:49;102537.97;;;-2.97;81.49
70250;BME280;57644;48.416;-123.374;2022-11-20T05:54:20;102534.00;;;-3.23;82.73
70250;BME280;57644;48.416;-123.374;2022-11-20T05:56:50;102533.27;;;-3.06;81.73
70250;BME280;57644;48.416;-123.374;2022-11-20T05:59:21;102535.90;;;-2.97;81.63
70250;BME280;57644;48.416;-123.374;2022-11-20T06:01:52;102531.95;;;-2.94;81.42
70250;BME280;57644;48.416;-123.374;2022-11-20T06:04:22;102528.28;;;-2.95;81.48
70250;BME280;57644;48.416;-123.374;2022-11-20T06:06:53;102534.07;;;-2.89;81.25
70250;BME280;57644;48.416;-123.374;2022-11-20T06:09:23;102553.10;;;-3.07;82.02
70250;BME280;57644;48.416;-123.374;2022-11-20T06:11:58;102556.75;;;-2.91;81.00
70250;BME280;57644;48.416;-123.374;2022-11-20T06:14:24;102542.22;;;-2.91;80.99
70250;BME280;57644;48.416;-123.374;2022-11-20T06:16:55;102537.48;;;-2.94;81.11
70250;BME280;57644;48.416;-123.374;2022-11-20T06:19:26;102535.19;;;-2.98;81.38
70250;BME280;57644;48.416;-123.374;2022-11-20T06:21:57;102533.97;;;-3.14;81.92
70250;BME280;57644;48.416;-123.374;2022-11-20T06:24:27;102533.79;;;-3.02;81.37
70250;BME280;57644;48.416;-123.374;2022-11-20T06:26:56;102530.07;;;-3.21;82.01
70250;BME280;57644;48.416;-123.374;2022-11-20T06:29:26;102534.85;;;-3.17;81.58
70250;BME280;57644;48.416;-123.374;2022-11-20T06:31:57;102533.30;;;-3.11;81.29
70250;BME280;57644;48.416;-123.374;2022-11-20T06:34:27;102526.55;;;-3.15;81.60
70250;BME280;57644;48.416;-123.374;2022-11-20T06:36:59;102524.27;;;-3.21;81.92
70250;BME280;57644;48.416;-123.374;2022-11-20T06:39:28;102529.51;;;-3.21;81.79
70250;BME280;57644;48.416;-123.374;2022-11-20T06:41:59;102531.25;;;-3.13;81.40
70250;BME280;57644;48.416;-123.374;2022-11-20T06:44:29;102526.26;;;-3.07;81.24
70250;BME280;57644;48.416;-123.374;2022-11-20T06:47:00;102528.38;;;-3.02;80.94
70250;BME280;57644;48.416;-123.374;2022-11-20T06:49:30;102528.65;;;-2.97;80.90
70250;BME280;57644;48.416;-123.374;2022-11-20T06:52:00;102529.83;;;-3.01;80.65
70250;BME280;57644;48.416;-123.374;2022-11-20T06:54:30;102526.86;;;-2.97;80.56
70250;BME280;57644;48.416;-123.374;2022-11-20T06:57:01;102528.04;;;-2.97;80.53
70250;BME280;57644;48.416;-123.374;2022-11-20T06:59:31;102524.01;;;-3.04;80.34
70250;BME280;57644;48.416;-123.374;2022-11-20T07:02:01;102521.85;;;-3.03;80.27
70250;BME280;57644;48.416;-123.374;2022-11-20T07:04:31;102523.76;;;-2.98;80.19
70250;BME280;57644;48.416;-123.374;2022-11-20T07:07:02;102522.93;;;-3.07;80.27
70250;BME280;57644;48.416;-123.374;2022-11-20T07:09:32;102525.03;;;-3.05;79.88
70250;BME280;57644;48.416;-123.374;2022-11-20T07:12:03;102528.03;;;-3.16;80.16
70250;BME280;57644;48.416;-123.374;2022-11-20T07:14:33;102531.81;;;-3.28;80.53
70250;BME280;57644;48.416;-123.374;2022-11-20T07:17:03;102530.49;;;-3.16;80.26
70250;BME280;57644;48.416;-123.374;2022-11-20T07:19:39;102530.58;;;-3.22;80.71
70250;BME280;57644;48.416;-123.374;2022-11-20T07:22:08;102525.07;;;-3.16;80.54
70250;BME280;57644;48.416;-123.374;2022-11-20T07:24:36;102525.23;;;-3.07;80.14
70250;BME280;57644;48.416;-123.374;2022-11-20T07:27:06;102526.47;;;-2.98;79.65
70250;BME280;57644;48.416;-123.374;2022-11-20T07:29:36;102525.03;;;-2.93;79.52
70250;BME280;57644;48.416;-123.374;2022-11-20T07:32:07;102527.66;;;-2.90;79.44
70250;BME280;57644;48.416;-123.374;2022-11-20T07:34:37;102526.68;;;-3.02;79.49
70250;BME280;57644;48.416;-123.374;2022-11-20T07:37:08;102524.63;;;-2.98;79.41
70250;BME280;57644;48.416;-123.374;2022-11-20T07:39:38;102521.55;;;-3.07;79.69
70250;BME280;57644;48.416;-123.374;2022-11-20T07:42:17;102526.30;;;-2.98;79.49
70250;BME280;57644;48.416;-123.374;2022-11-20T07:44:39;102528.98;;;-2.93;78.90
70250;BME280;57644;48.416;-123.374;2022-11-20T07:47:09;102528.06;;;-2.93;78.96
70250;BME280;57644;48.416;-123.374;2022-11-20T07:49:40;102533.08;;;-2.90;79.14
70250;BME280;57644;48.416;-123.374;2022-11-20T07:52:10;102530.11;;;-3.06;79.33
70250;BME280;57644;48.416;-123.374;2022-11-20T07:54:41;102525.25;;;-2.97;78.99
70250;BME280;57644;48.416;-123.374;2022-11-20T07:57:11;102524.46;;;-2.97;79.27
70250;BME280;57644;48.416;-123.374;2022-11-20T07:59:41;102522.40;;;-3.00;79.26
70250;BME280;57644;48.416;-123.374;2022-11-20T08:02:13;102520.74;;;-3.04;79.21
70250;BME280;57644;48.416;-123.374;2022-11-20T08:04:43;102521.52;;;-3.08;79.46
70250;BME280;57644;48.416;-123.374;2022-11-20T08:07:12;102530.67;;;-3.05;79.38
70250;BME280;57644;48.416;-123.374;2022-11-20T08:09:44;102531.26;;;-2.92;78.85
70250;BME280;57644;48.416;-123.374;2022-11-20T08:12:19;102531.31;;;-2.93;78.75
70250;BME280;57644;48.416;-123.374;2022-11-20T08:14:44;102530.39;;;-3.02;79.22
70250;BME280;57644;48.416;-123.374;2022-11-20T08:17:14;102527.04;;;-3.03;79.24
70250;BME280;57644;48.416;-123.374;2022-11-20T08:19:45;102519.62;;;-3.02;79.05
70250;BME280;57644;48.416;-123.374;2022-11-20T08:22:15;102525.94;;;-3.00;79.00
70250;BME280;57644;48.416;-123.374;2022-11-20T08:24:47;102531.55;;;-2.93;78.87
70250;BME280;57644;48.416;-123.374;2022-11-20T08:27:16;102521.53;;;-2.89;78.34
70250;BME280;57644;48.416;-123.374;2022-11-20T08:29:46;102521.63;;;-3.03;79.07
70250;BME280;57644;48.416;-123.374;2022-11-20T08:32:16;102528.47;;;-2.93;78.75
70250;BME280;57644;48.416;-123.374;2022-11-20T08:34:47;102524.89;;;-3.08;79.17
70250;BME280;57644;48.416;-123.374;2022-11-20T08:37:17;102522.74;;;-3.10;78.93
70250;BME280;57644;48.416;-123.374;2022-11-20T08:39:47;102522.63;;;-3.04;78.80
70250;BME280;57644;48.416;-123.374;2022-11-20T08:42:17;102522.54;;;-3.08;78.97
70250;BME280;57644;48.416;-123.374;2022-11-20T08:44:48;102521.72;;;-3.17;79.67
70250;BME280;57644;48.416;-123.374;2022-11-20T08:47:18;102522.22;;;-3.13;79.44
70250;BME280;57644;48.416;-123.374;2022-11-20T08:49:48;102517.99;;;-3.09;79.55
70250;BME280;57644;48.416;-123.374;2022-11-20T08:52:19;102520.25;;;-3.11;79.91
70250;BME280;57644;48.416;-123.374;2022-11-20T08:54:50;102522.22;;;-3.05;79.69
70250;BME280;57644;48.416;-123.374;2022-11-20T08:57:20;102518.82;;;-2.92;79.36
70250;BME280;57644;48.416;-123.374;2022-11-20T08:59:51;102522.83;;;-2.87;79.11
70250;BME280;57644;48.416;-123.374;2022-11-20T09:02:21;102523.78;;;-2.78;79.06
70250;BME280;57644;48.416;-123.374;2022-11-20T09:04:51;102518.98;;;-2.76;78.75
70250;BME280;57644;48.416;-123.374;2022-11-20T09:07:22;102521.02;;;-2.72;78.71
70250;BME280;57644;48.416;-123.374;2022-11-20T09:09:52;102519.24;;;-2.66;78.48
70250;BME280;57644;48.416;-123.374;2022-11-20T09:12:23;102516.05;;;-2.77;79.10
70250;BME280;57644;48.416;-123.374;2022-11-20T09:14:53;102511.99;;;-2.90;79.73
70250;BME280;57644;48.416;-123.374;2022-11-20T09:17:23;102509.89;;;-3.04;79.93
70250;BME280;57644;48.416;-123.374;2022-11-20T09:19:53;102504.43;;;-2.78;79.23
70250;BME280;57644;48.416;-123.374;2022-11-20T09:22:24;102507.11;;;-2.67;78.87
70250;BME280;57644;48.416;-123.374;2022-11-20T09:24:54;102513.63;;;-2.63;78.61
70250;BME280;57644;48.416;-123.374;2022-11-20T09:27:24;102516.33;;;-2.71;78.77
70250;BME280;57644;48.416;-123.374;2022-11-20T09:29:54;102519.22;;;-2.67;78.58
70250;BME280;57644;48.416;-123.374;2022-11-20T09:32:25;102524.64;;;-2.61;78.78
70250;BME280;57644;48.416;-123.374;2022-11-20T09:34:55;102526.27;;;-2.72;78.83
70250;BME280;57644;48.416;-123.374;2022-11-20T09:37:26;102524.64;;;-2.58;78.24
70250;BME280;57644;48.416;-123.374;2022-11-20T09:39:56;102521.12;;;-2.58;78.10
70250;BME280;57644;48.416;-123.374;2022-11-20T09:42:33;102523.03;;;-2.72;78.44
70250;BME280;57644;48.416;-123.374;2022-11-20T09:45:08;102517.63;;;-2.65;78.36
70250;BME280;57644;48.416;-123.374;2022-11-20T09:47:36;102522.80;;;-2.71;78.51
70250;BME280;57644;48.416;-123.374;2022-11-20T09:50:10;102522.00;;;-2.62;78.37
70250;BME280;57644;48.416;-123.374;2022-11-20T09:52:37;102517.01;;;-2.61;78.38
70250;BME280;57644;48.416;-123.374;2022-11-20T09:55:02;102512.84;;;-2.58;78.47
70250;BME280;57644;48.416;-123.374;2022-11-20T09:57:35;102510.02;;;-2.52;78.49
70250;BME280;57644;48.416;-123.374;2022-11-20T10:00:03;102512.35;;;-2.49;78.73
70250;BME280;57644;48.416;-123.374;2022-11-20T10:02:37;102514.93;;;-2.39;78.38
70250;BME280;57644;48.416;-123.374;2022-11-20T10:05:06;102519.83;;;-2.29;78.10
70250;BME280;57644;48.416;-123.374;2022-11-20T10:07:36;102525.23;;;-2.29;77.77
70250;BME280;57644;48.416;-123.374;2022-11-20T10:10:03;102526.71;;;-2.27;77.66
70250;BME280;57644;48.416;-123.374;2022-11-20T10:12:41;102524.21;;;-2.27;77.66
70250;BME280;57644;48.416;-123.374;2022-11-20T10:15:16;102519.80;;;-2.36;78.41
70250;BME280;57644;48.416;-123.374;2022-11-20T10:20:15;102524.13;;;-2.38;78.24
70250;BME280;57644;48.416;-123.374;2022-11-20T10:22:44;102521.30;;;-2.46;78.76
70250;BME280;57644;48.416;-123.374;2022-11-20T10:25:10;102523.60;;;-2.39;78.51
70250;BME280;57644;48.416;-123.374;2022-11-20T10:27:48;102524.01;;;-2.37;78.52
70250;BME280;57644;48.416;-123.374;2022-11-20T10:30:10;102531.65;;;-2.27;78.15
70250;BME280;57644;48.416;-123.374;2022-11-20T10:32:38;102530.15;;;-2.29;78.37
70250;BME280;57644;48.416;-123.374;2022-11-20T10:35:19;102526.56;;;-2.40;78.84
70250;BME280;57644;48.416;-123.374;2022-11-20T10:37:41;102528.13;;;-2.43;79.46
70250;BME280;57644;48.416;-123.374;2022-11-20T10:40:19;102522.97;;;-2.40;79.39
70250;BME280;57644;48.416;-123.374;2022-11-20T10:42:41;102519.84;;;-2.38;79.25
70250;BME280;57644;48.416;-123.374;2022-11-20T10:45:16;102521.71;;;-2.40;79.26
70250;BME280;57644;48.416;-123.374;2022-11-20T10:47:38;102529.01;;;-2.34;79.40
70250;BME280;57644;48.416;-123.374;2022-11-20T10:50:14;102534.74;;;-2.24;78.81
70250;BME280;57644;48.416;-123.374;2022-11-20T10:52:47;102535.17;;;-2.32;79.05
70250;BME280;57644;48.416;-123.374;2022-11-20T10:55:18;102537.90;;;-2.29;78.98
70250;BME280;57644;48.416;-123.374;2022-11-20T10:57:52;102533.27;;;-2.36;79.47
70250;BME280;57644;48.416;-123.374;2022-11-20T11:00:11;102534.12;;;-2.35;79.70
70250;BME280;57644;48.416;-123.374;2022-11-20T11:02:44;102539.37;;;-2.46;80.16
70250;BME280;57644;48.416;-123.374;2022-11-20T11:05:22;102537.44;;;-2.40;79.80
70250;BME280;57644;48.416;-123.374;2022-11-20T11:07:42;102539.32;;;-2.41;79.85
70250;BME280;57644;48.416;-123.374;2022-11-20T11:10:17;102536.10;;;-2.40;79.93
70250;BME280;57644;48.416;-123.374;2022-11-20T11:12:46;102539.07;;;-2.33;79.67
70250;BME280;57644;48.416;-123.374;2022-11-20T11:15:27;102538.07;;;-2.32;79.70
70250;BME280;57644;48.416;-123.374;2022-11-20T11:17:48;102538.67;;;-2.38;79.73
70250;BME280;57644;48.416;-123.374;2022-11-20T11:20:18;102540.52;;;-2.50;80.07
70250;BME280;57644;48.416;-123.374;2022-11-20T11:22:47;102542.06;;;-2.39;79.55
70250;BME280;57644;48.416;-123.374;2022-11-20T11:25:24;102545.56;;;-2.42;79.96
70250;BME280;57644;48.416;-123.374;2022-11-20T11:27:47;102549.79;;;-2.45;79.93
70250;BME280;57644;48.416;-123.374;2022-11-20T11:30:18;102554.65;;;-2.44;79.70
70250;BME280;57644;48.416;-123.374;2022-11-20T11:32:47;102561.46;;;-2.58;80.03
70250;BME280;57644;48.416;-123.374;2022-11-20T11:35:24;102563.12;;;-2.61;80.30
70250;BME280;57644;48.416;-123.374;2022-11-20T11:37:48;102559.27;;;-2.66;80.50
70250;BME280;57644;48.416;-123.374;2022-11-20T11:40:20;102558.86;;;-2.69;80.48
70250;BME280;57644;48.416;-123.374;2022-11-20T11:42:55;102557.46;;;-2.68;80.32
70250;BME280;57644;48.416;-123.374;2022-11-20T11:45:21;102556.55;;;-2.76;80.39
70250;BME280;57644;48.416;-123.374;2022-11-20T11:47:52;102560.56;;;-2.69;80.13
70250;BME280;57644;48.416;-123.374;2022-11-20T11:50:23;102562.45;;;-2.79;80.55
70250;BME280;57644;48.416;-123.374;2022-11-20T11:53:00;102560.79;;;-2.85;80.68
70250;BME280;57644;48.416;-123.374;2022-11-20T11:55:29;102559.18;;;-2.83;80.27
70250;BME280;57644;48.416;-123.374;2022-11-20T11:57:55;102558.54;;;-2.87;81.04
70250;BME280;57644;48.416;-123.374;2022-11-20T12:00:23;102557.56;;;-2.85;80.94
70250;BME280;57644;48.416;-123.374;2022-11-20T12:03:00;102555.10;;;-2.80;80.98
70250;BME280;57644;48.416;-123.374;2022-11-20T12:05:27;102545.95;;;-2.87;81.27
70250;BME280;57644;48.416;-123.374;2022-11-20T12:07:58;102541.89;;;-2.85;81.19
70250;BME280;57644;48.416;-123.374;2022-11-20T12:10:34;102540.31;;;-2.79;80.96
70250;BME280;57644;48.416;-123.374;2022-11-20T12:12:58;102538.93;;;-2.70;80.66
70250;BME280;57644;48.416;-123.374;2022-11-20T12:15:30;102537.90;;;-2.64;80.45
70250;BME280;57644;48.416;-123.374;2022-11-20T12:17:56;102529.97;;;-2.56;80.12
70250;BME280;57644;48.416;-123.374;2022-11-20T12:20:29;102528.29;;;-2.67;80.23
70250;BME280;57644;48.416;-123.374;2022-11-20T12:23:03;102525.14;;;-2.76;80.08
70250;BME280;57644;48.416;-123.374;2022-11-20T12:25:30;102526.06;;;-2.73;80.24
70250;BME280;57644;48.416;-123.374;2022-11-20T12:28:04;102528.41;;;-2.73;79.93
70250;BME280;57644;48.416;-123.374;2022-11-20T12:30:27;102530.12;;;-2.79;79.88
70250;BME280;57644;48.416;-123.374;2022-11-20T12:33:09;102533.33;;;-2.94;80.33
70250;BME280;57644;48.416;-123.374;2022-11-20T12:35:44;102537.10;;;-3.08;80.56
70250;BME280;57644;48.416;-123.374;2022-11-20T12:38:08;102540.15;;;-3.17;80.69
70250;BME280;57644;48.416;-123.374;2022-11-20T12:40:32;102541.87;;;-3.22;80.96
70250;BME280;57644;48.416;-123.374;2022-11-20T12:43:06;102547.89;;;-3.33;81.36
70250;BME280;57644;48.416;-123.374;2022-11-20T12:50:39;102543.76;;;-3.31;81.56
70250;BME280;57644;48.416;-123.374;2022-11-20T12:53:04;102553.12;;;-3.44;81.78